createdAt,value
2019-03-01T00:00:01.570Z,0
2019-03-01T00:05:03.348Z,18.60
2019-03-01T00:10:02.867Z,17.15
2019-03-01T00:15:03.215Z,11.33
2019-03-01T00:20:02.623Z,11.75
2019-03-01T00:25:02.990Z,13.28
2019-03-01T00:30:02.316Z,15.30
2019-03-01T00:35:01.922Z,0
2019-03-01T00:40:02.352Z,14.10
2019-03-01T00:45:02.728Z,12.30
2019-03-01T00:50:03.140Z,14.30
2019-03-01T00:55:02.594Z,16.02
2019-03-01T01:00:02.988Z,14.25
2019-03-01T01:05:02.931Z,11.28
2019-03-01T01:10:02.366Z,15.43
2019-03-01T01:15:02.805Z,17.75
2019-03-01T01:20:03.268Z,13.58
2019-03-01T01:25:02.661Z,15.68
2019-03-01T01:30:02.997Z,17.82
2019-03-01T01:35:02.576Z,16.57
2019-03-01T01:40:03.114Z,13.85
2019-03-01T01:45:01.675Z,0
2019-03-01T01:50:03.038Z,16.23
2019-03-01T01:55:02.440Z,13.68
2019-03-01T02:00:02.782Z,12.40
2019-03-01T02:05:03.232Z,21.02
2019-03-01T02:10:02.641Z,17.30
2019-03-01T02:15:03.094Z,10.85
2019-03-01T02:20:02.500Z,10.48
2019-03-01T02:25:02.854Z,10.45
2019-03-01T02:30:03.231Z,15.58
2019-03-01T02:35:02.611Z,11.22
2019-03-01T02:40:03.056Z,12.95
2019-03-01T02:45:02.483Z,11.53
2019-03-01T02:50:02.821Z,19.17
2019-03-01T02:55:03.264Z,20.23
2019-03-01T03:00:02.676Z,11.95
2019-03-01T03:05:03.022Z,12.80
2019-03-01T03:10:02.475Z,11.63
2019-03-01T03:15:02.881Z,12.35
2019-03-01T03:20:03.323Z,15.32
2019-03-01T03:25:02.734Z,10.28
2019-03-01T03:30:03.094Z,9.78
2019-03-01T03:35:02.546Z,12.88
2019-03-01T03:40:02.947Z,18.73
2019-03-01T03:45:03.315Z,14.23
2019-03-01T03:50:02.704Z,11.30
2019-03-01T03:55:03.051Z,12.65
2019-03-01T04:00:02.605Z,13.30
2019-03-01T04:05:03.057Z,13.83
2019-03-01T04:10:02.544Z,14.87
2019-03-01T04:15:02.915Z,15.35
2019-03-01T04:20:03.270Z,15.50
2019-03-01T04:25:02.652Z,22.45
2019-03-01T04:30:03.081Z,30.60
2019-03-01T04:35:02.496Z,25.40
2019-03-01T04:40:02.943Z,36.90
2019-03-01T04:45:03.287Z,46.65
2019-03-01T04:50:02.692Z,40.45
2019-03-01T04:55:03.057Z,38.50
2019-03-01T05:00:02.414Z,39.48
2019-03-01T05:05:02.846Z,43.23
2019-03-01T05:10:03.252Z,43.15
2019-03-01T05:15:02.696Z,44.35
2019-03-01T05:20:03.072Z,33.98
2019-03-01T05:25:02.466Z,38.45
2019-03-01T05:30:03.011Z,56.40
2019-03-01T05:35:02.393Z,60.38
2019-03-01T05:40:02.874Z,62.55
2019-03-01T05:45:03.316Z,55.63
2019-03-01T05:50:02.697Z,60.92
2019-03-01T05:55:03.180Z,60.40
2019-03-01T06:00:02.558Z,62.13
2019-03-01T06:05:02.900Z,59.98
2019-03-01T06:10:03.355Z,75.70
2019-03-01T06:15:02.743Z,65.83
2019-03-01T06:20:03.314Z,62.13
2019-03-01T06:25:02.748Z,72.35
2019-03-01T06:30:03.176Z,53.78
2019-03-01T06:35:02.580Z,72.65
2019-03-01T06:40:03.116Z,74.90
2019-03-01T06:45:02.481Z,74.70
2019-03-01T06:50:02.904Z,77.75
2019-03-01T06:55:02.530Z,0
2019-03-01T07:00:03.168Z,77.87
2019-03-01T07:05:02.511Z,60.83
2019-03-01T07:10:02.927Z,79.03
2019-03-01T07:15:03.264Z,84.17
2019-03-01T07:20:02.707Z,58.02
2019-03-01T07:25:03.136Z,67.30
2019-03-01T07:30:02.544Z,75.87
2019-03-01T07:35:02.898Z,74.10
2019-03-01T07:40:03.341Z,62.43
2019-03-01T07:45:02.747Z,85.85
2019-03-01T07:50:03.105Z,90.62
2019-03-01T07:55:02.505Z,77.75
2019-03-01T08:00:02.859Z,74.53
2019-03-01T08:05:04.024Z,59.00
2019-03-01T08:10:02.503Z,74.10
2019-03-01T08:15:04.056Z,79.22
2019-03-01T08:20:02.478Z,64.58
2019-03-01T08:25:02.818Z,58.58
2019-03-01T08:30:03.162Z,80.38
2019-03-01T08:35:02.572Z,73.75
2019-03-01T08:40:03.022Z,78.55
2019-03-01T08:45:02.917Z,69.92
2019-03-01T08:50:02.401Z,71.77
2019-03-01T08:55:03.507Z,93.22
2019-03-01T09:00:02.957Z,98.35
2019-03-01T09:05:05.135Z,60.40
2019-03-01T09:10:02.844Z,55.28
2019-03-01T09:15:04.528Z,74.58
2019-03-01T09:20:02.577Z,55.98
2019-03-01T09:25:06.349Z,59.30
2019-03-01T09:30:03.920Z,66.95
2019-03-01T09:35:04.366Z,73.22
2019-03-01T09:40:05.563Z,62.33
2019-03-01T09:45:02.347Z,80.72
2019-03-01T09:50:02.780Z,112.57
2019-03-01T09:55:03.123Z,57.90
2019-03-01T10:00:02.549Z,53.63
2019-03-01T10:05:03.015Z,51.85
2019-03-01T10:10:02.527Z,46.50
2019-03-01T10:15:02.953Z,27.27
2019-03-01T10:20:03.296Z,39.45
2019-03-01T10:25:02.703Z,37.17
2019-03-01T10:30:03.047Z,42.13
2019-03-01T10:35:02.462Z,46.63
2019-03-01T10:40:02.175Z,0
2019-03-01T10:45:02.546Z,34.43
2019-03-01T10:50:02.977Z,38.02
2019-03-01T10:55:02.390Z,29.02
2019-03-01T11:00:02.712Z,32.90
2019-03-01T11:05:03.076Z,31.65
2019-03-01T11:10:02.483Z,20.40
2019-03-01T11:15:01.994Z,0
2019-03-01T11:20:02.355Z,14.07
2019-03-01T11:25:02.689Z,17.48
2019-03-01T11:30:03.041Z,18.37
2019-03-01T11:35:02.454Z,18.95
2019-03-01T11:40:02.917Z,19.67
2019-03-01T11:45:03.339Z,18.42
2019-03-01T11:50:02.760Z,19.15
2019-03-01T11:55:03.095Z,17.12
2019-03-01T12:00:02.536Z,19.92
2019-03-01T12:05:02.874Z,16.48
2019-03-01T12:10:03.308Z,13.65
2019-03-01T12:15:02.713Z,19.30
2019-03-01T12:20:03.086Z,14.90
2019-03-01T12:25:02.482Z,23.22
2019-03-01T12:30:02.829Z,30.00
2019-03-01T12:35:03.168Z,40.52
2019-03-01T12:40:02.678Z,14.78
2019-03-01T12:45:03.033Z,16.12
2019-03-01T12:50:02.470Z,15.75
2019-03-01T12:55:02.910Z,10.75
2019-03-01T13:00:03.262Z,17.37
2019-03-01T13:05:02.670Z,21.95
2019-03-01T13:10:06.176Z,26.87
2019-03-01T13:15:03.337Z,15.50
2019-03-01T13:20:02.806Z,20.88
2019-03-01T13:25:03.152Z,15.28
2019-03-01T13:30:02.506Z,12.45
2019-03-01T13:35:02.865Z,14.15
2019-03-01T13:40:03.307Z,8.60
2019-03-01T13:45:02.711Z,12.15
2019-03-01T13:50:06.093Z,13.32
2019-03-01T13:55:03.243Z,13.10
2019-03-01T14:00:01.864Z,0
2019-03-01T14:05:03.257Z,11.18
2019-03-01T14:10:04.805Z,8.68
2019-03-01T14:15:03.882Z,4.62
2019-03-01T14:20:03.256Z,9.35
2019-03-01T14:25:05.217Z,6.35
2019-03-01T14:30:02.395Z,5.53
2019-03-01T14:35:02.746Z,9.43
2019-03-01T14:40:03.183Z,5.97
2019-03-01T14:45:02.546Z,10.43
2019-03-01T14:50:02.949Z,5.20
2019-03-01T14:55:03.275Z,7.12
2019-03-01T15:00:09.768Z,0
2019-03-01T15:05:05.357Z,8.65
2019-03-01T15:10:02.977Z,6.08
2019-03-01T15:15:02.301Z,5.55
2019-03-01T15:20:02.742Z,4.85
2019-03-01T15:25:03.176Z,4.22
2019-03-01T15:30:05.739Z,9.40
2019-03-01T15:35:04.225Z,5.95
2019-03-01T15:40:02.885Z,7.62
2019-03-01T15:45:05.060Z,8.35
2019-03-01T15:50:03.246Z,6.12
2019-03-01T15:55:02.683Z,8.00
2019-03-01T16:00:03.341Z,5.35
2019-03-01T16:05:02.757Z,4.60
2019-03-01T16:10:03.175Z,5.53
2019-03-01T16:15:02.606Z,4.58
2019-03-01T16:20:02.960Z,5.45
2019-03-01T16:25:03.481Z,3.47
2019-03-01T16:30:02.888Z,3.92
2019-03-01T16:35:03.262Z,11.65
2019-03-01T16:40:02.750Z,4.92
2019-03-01T16:45:03.113Z,4.55
2019-03-01T16:50:05.814Z,4.00
2019-03-01T16:55:02.484Z,7.00
2019-03-01T17:00:02.936Z,4.65
2019-03-01T17:05:04.728Z,3.05
2019-03-01T17:10:03.265Z,3.05
2019-03-01T17:15:02.692Z,4.55
2019-03-01T17:20:03.658Z,3.37
2019-03-01T17:25:03.169Z,5.75
2019-03-01T17:30:02.613Z,3.17
2019-03-01T17:35:04.960Z,3.65
2019-03-01T17:40:02.449Z,3.10
2019-03-01T17:45:02.795Z,5.40
2019-03-01T17:50:05.527Z,3.67
2019-03-01T17:55:02.745Z,0
2019-03-01T18:00:03.234Z,3.62
2019-03-01T18:05:02.605Z,5.35
2019-03-01T18:10:03.073Z,3.87
2019-03-01T18:15:02.470Z,4.22
2019-03-01T18:20:02.822Z,4.25
2019-03-01T18:25:03.153Z,4.08
2019-03-01T18:30:02.570Z,4.70
2019-03-01T18:35:02.981Z,3.90
2019-03-01T18:40:02.443Z,3.75
2019-03-01T18:45:03.495Z,5.22
2019-03-01T18:50:03.234Z,3.45
2019-03-01T18:55:02.646Z,4.45
2019-03-01T19:00:02.989Z,3.92
2019-03-01T19:05:04.487Z,4.28
2019-03-01T19:10:02.958Z,7.55
2019-03-01T19:15:03.299Z,5.20
2019-03-01T19:20:05.668Z,5.85
2019-03-01T19:25:02.866Z,6.42
2019-03-01T19:30:05.014Z,5.33
2019-03-01T19:35:02.501Z,8.60
2019-03-01T19:40:03.054Z,5.65
2019-03-01T19:45:04.858Z,5.42
2019-03-01T19:50:03.359Z,5.40
2019-03-01T19:55:02.749Z,5.50
2019-03-01T20:00:03.109Z,5.00
2019-03-01T20:05:02.523Z,6.78
2019-03-01T20:10:02.991Z,5.35
2019-03-01T20:15:02.373Z,6.17
2019-03-01T20:20:02.844Z,6.28
2019-03-01T20:25:03.304Z,5.90
2019-03-01T20:30:04.248Z,6.92
2019-03-01T20:35:02.829Z,5.95
2019-03-01T20:40:03.270Z,7.12
2019-03-01T20:45:02.675Z,5.37
2019-03-01T20:50:03.597Z,6.50
2019-03-01T20:55:03.062Z,6.95
2019-03-01T21:00:02.855Z,6.50
2019-03-01T21:05:03.257Z,7.58
2019-03-01T21:10:02.630Z,6.70
2019-03-01T21:15:03.104Z,6.95
2019-03-01T21:20:02.552Z,5.72
2019-03-01T21:25:03.240Z,0
2019-03-01T21:30:02.886Z,6.70
2019-03-01T21:35:03.212Z,8.80
2019-03-01T21:40:03.237Z,7.62
2019-03-01T21:45:02.667Z,7.97
2019-03-01T21:50:04.269Z,10.20
2019-03-01T21:55:03.147Z,7.90
2019-03-01T22:00:02.562Z,9.95
2019-03-01T22:05:02.906Z,10.13
2019-03-01T22:10:03.292Z,9.45
2019-03-01T22:15:02.654Z,9.40
2019-03-01T22:20:05.717Z,7.83
2019-03-01T22:25:03.339Z,7.28
2019-03-01T22:30:02.770Z,8.48
2019-03-01T22:35:07.860Z,8.18
2019-03-01T22:40:02.820Z,8.45
2019-03-01T22:45:03.210Z,7.45
2019-03-01T22:50:04.043Z,6.67
2019-03-01T22:55:03.135Z,7.20
2019-03-01T23:00:02.447Z,5.87
2019-03-01T23:05:03.833Z,5.97
2019-03-01T23:10:03.240Z,6.35
2019-03-01T23:15:06.298Z,6.30
2019-03-01T23:20:03.111Z,4.90
2019-03-01T23:25:02.516Z,5.15
2019-03-01T23:30:02.862Z,5.47
2019-03-01T23:35:03.204Z,5.10
2019-03-01T23:40:02.617Z,5.78
2019-03-01T23:45:02.961Z,4.40
2019-03-01T23:50:03.308Z,5.05
2019-03-01T23:55:02.725Z,4.92
